createdAt,value
2019-03-23T00:00:25.277Z,50.60
2019-03-23T00:05:31.965Z,50.90
2019-03-23T00:10:38.520Z,48.73
2019-03-23T00:15:45.238Z,46.33
2019-03-23T00:20:51.755Z,45.67
2019-03-23T00:25:58.329Z,46.47
2019-03-23T00:31:04.967Z,44.03
2019-03-23T00:36:11.659Z,43.70
2019-03-23T00:41:19.269Z,42.33
2019-03-23T00:46:25.794Z,41.23
2019-03-23T00:51:32.393Z,40.87
2019-03-23T00:56:40.105Z,38.90
2019-03-23T01:01:46.832Z,37.47
2019-03-23T01:06:53.533Z,37.23
2019-03-23T01:12:00.079Z,34.70
2019-03-23T01:17:06.689Z,36.03
2019-03-23T01:22:13.219Z,35.63
2019-03-23T01:27:19.815Z,35.57
2019-03-23T01:32:26.405Z,35.57
2019-03-23T01:37:32.968Z,33.70
2019-03-23T01:42:39.677Z,34.10
2019-03-23T01:47:46.270Z,33.87
2019-03-23T01:52:52.893Z,33.10
2019-03-23T01:57:59.461Z,34.97
2019-03-23T02:03:06.049Z,33.47
2019-03-23T02:08:12.646Z,34.03
2019-03-23T02:13:19.202Z,33.83
2019-03-23T02:18:25.828Z,34.07
2019-03-23T02:23:32.444Z,34.03
2019-03-23T02:28:39.049Z,35.10
2019-03-23T02:33:45.702Z,37.10
2019-03-23T02:38:52.392Z,36.10
2019-03-23T02:43:58.985Z,38.00
2019-03-23T02:49:05.567Z,37.57
2019-03-23T02:54:12.138Z,40.17
2019-03-23T02:59:18.716Z,39.47
2019-03-23T03:04:25.287Z,42.00
2019-03-23T03:09:31.789Z,40.03
2019-03-23T03:14:38.353Z,39.90
2019-03-23T03:19:44.929Z,40.50
2019-03-23T03:24:51.598Z,41.27
2019-03-23T03:29:58.286Z,41.33
2019-03-23T03:35:05.306Z,41.83
2019-03-23T03:40:12.198Z,41.50
2019-03-23T03:45:24.310Z,41.13
2019-03-23T03:50:30.798Z,39.70
2019-03-23T03:55:37.437Z,39.60
2019-03-23T04:00:44.038Z,38.30
2019-03-23T04:05:50.635Z,39.60
2019-03-23T04:10:57.305Z,39.23
2019-03-23T04:16:03.978Z,37.73
2019-03-23T04:21:10.499Z,37.63
2019-03-23T04:26:17.225Z,39.60
2019-03-23T04:31:23.765Z,37.70
2019-03-23T04:36:30.247Z,36.47
2019-03-23T04:41:36.964Z,34.83
2019-03-23T04:46:44.068Z,33.00
2019-03-23T04:51:50.653Z,32.57
2019-03-23T04:56:57.174Z,32.77
2019-03-23T05:02:04.042Z,33.90
2019-03-23T05:07:10.759Z,33.60
2019-03-23T05:12:17.403Z,33.83
2019-03-23T05:17:24.076Z,33.97
2019-03-23T05:22:30.726Z,35.03
2019-03-23T05:27:37.700Z,33.37
2019-03-23T05:32:45.957Z,33.50
2019-03-23T05:37:52.625Z,34.07
2019-03-23T05:42:59.253Z,35.23
2019-03-23T05:48:05.841Z,33.73
2019-03-23T05:53:12.349Z,33.13
2019-03-23T05:58:18.934Z,31.80
2019-03-23T06:03:25.553Z,32.13
2019-03-23T06:08:32.106Z,31.60
2019-03-23T06:13:38.759Z,31.60
2019-03-23T06:18:45.193Z,30.40
2019-03-23T06:23:51.673Z,31.03
2019-03-23T06:28:58.117Z,30.43
2019-03-23T06:34:04.687Z,29.47
2019-03-23T06:39:11.301Z,29.47
2019-03-23T06:44:18.467Z,29.17
2019-03-23T06:49:25.119Z,29.67
2019-03-23T06:54:31.693Z,28.80
2019-03-23T06:59:38.182Z,29.13
2019-03-23T07:04:44.798Z,28.60
2019-03-23T07:09:51.422Z,30.43
2019-03-23T07:14:57.937Z,29.43
2019-03-23T07:20:05.491Z,30.23
2019-03-23T07:25:12.318Z,29.13
2019-03-23T07:30:20.494Z,30.13
2019-03-23T07:35:27.068Z,29.53
2019-03-23T07:40:33.645Z,29.70
2019-03-23T07:45:40.217Z,29.77
2019-03-23T07:50:46.719Z,31.33
2019-03-23T07:55:53.214Z,30.67
2019-03-23T08:00:59.931Z,28.70
2019-03-23T08:06:06.361Z,28.77
2019-03-23T08:11:12.966Z,29.07
2019-03-23T08:16:19.569Z,27.37
2019-03-23T08:21:27.195Z,28.23
2019-03-23T08:26:33.646Z,27.80
2019-03-23T08:31:40.319Z,28.10
2019-03-23T08:36:46.904Z,26.67
2019-03-23T08:41:53.421Z,27.27
2019-03-23T08:47:00.088Z,26.30
2019-03-23T08:52:06.689Z,27.27
2019-03-23T08:57:13.394Z,26.67
2019-03-23T09:02:21.745Z,26.33
2019-03-23T09:07:28.451Z,25.77
2019-03-23T09:12:35.061Z,26.87
2019-03-23T09:17:41.622Z,25.43
2019-03-23T09:22:48.207Z,25.27
2019-03-23T09:27:54.676Z,25.97
2019-03-23T09:33:01.244Z,27.43
2019-03-23T09:38:07.764Z,26.17
2019-03-23T09:43:14.391Z,26.23
2019-03-23T09:48:21.030Z,25.33
2019-03-23T09:53:31.494Z,25.57
2019-03-23T09:58:41.153Z,26.13
2019-03-23T10:03:47.729Z,24.27
2019-03-23T10:08:54.347Z,25.73
2019-03-23T10:14:03.136Z,24.20
2019-03-23T10:19:10.265Z,24.87
2019-03-23T10:24:16.846Z,23.97
2019-03-23T10:29:23.515Z,23.97
2019-03-23T10:34:30.073Z,22.73
2019-03-23T10:39:37.119Z,20.20
2019-03-23T10:44:43.957Z,22.03
2019-03-23T10:49:50.516Z,18.27
2019-03-23T10:54:57.159Z,16.73
2019-03-23T11:00:03.994Z,15.23
2019-03-23T11:05:12.446Z,14.30
2019-03-23T11:10:19.762Z,12.20
2019-03-23T11:15:26.366Z,10.50
2019-03-23T11:20:33.092Z,8.53
2019-03-23T11:25:39.814Z,8.20
2019-03-23T11:30:46.469Z,7.90
2019-03-23T11:35:57.734Z,7.83
2019-03-23T11:41:01.462Z,6.20
2019-03-23T11:46:08.162Z,5.70
2019-03-23T11:51:14.876Z,4.67
2019-03-23T11:56:21.386Z,3.70
2019-03-23T12:01:28.139Z,3.57
2019-03-23T12:06:34.791Z,3.47
2019-03-23T12:11:41.449Z,8.47
2019-03-23T12:16:48.133Z,4.07
2019-03-23T12:21:54.677Z,2.77
2019-03-23T12:27:01.342Z,3.60
2019-03-23T12:32:07.954Z,3.30
2019-03-23T12:37:14.662Z,3.20
2019-03-23T12:42:21.089Z,2.80
2019-03-23T12:47:27.700Z,3.00
2019-03-23T12:52:34.294Z,2.60
2019-03-23T12:57:40.951Z,2.93
2019-03-23T13:02:47.706Z,2.70
2019-03-23T13:07:54.286Z,2.40
2019-03-23T13:13:00.889Z,2.67
2019-03-23T13:18:07.616Z,2.20
2019-03-23T13:23:14.235Z,2.53
2019-03-23T13:28:20.793Z,2.73
2019-03-23T13:33:27.649Z,2.20
2019-03-23T13:38:34.318Z,2.40
2019-03-23T13:43:40.856Z,2.30
2019-03-23T13:48:47.525Z,2.60
2019-03-23T13:53:54.129Z,2.27
2019-03-23T13:59:00.819Z,2.23
2019-03-23T14:04:07.370Z,2.20
2019-03-23T14:09:14.036Z,1.93
2019-03-23T14:14:20.552Z,2.50
2019-03-23T14:19:27.110Z,3.10
2019-03-23T14:24:33.762Z,3.20
2019-03-23T14:29:40.383Z,3.30
2019-03-23T14:34:46.795Z,5.50
2019-03-23T14:39:53.348Z,2.90
2019-03-23T14:44:59.990Z,3.60
2019-03-23T14:50:06.978Z,2.93
2019-03-23T14:55:13.737Z,3.10
2019-03-23T15:00:35.768Z,2.97
2019-03-23T15:05:42.353Z,3.60
2019-03-23T15:10:49.938Z,3.07
2019-03-23T15:15:56.656Z,4.87
2019-03-23T15:21:03.384Z,3.17
2019-03-23T15:26:09.963Z,3.50
2019-03-23T15:31:18.226Z,3.20
2019-03-23T15:36:24.719Z,3.23
2019-03-23T15:41:31.158Z,2.83
2019-03-23T15:46:37.877Z,2.97
2019-03-23T15:51:44.571Z,3.07
2019-03-23T15:56:51.149Z,2.70
2019-03-23T16:01:57.941Z,3.07
2019-03-23T16:07:04.890Z,2.60
2019-03-23T16:12:11.532Z,2.10
2019-03-23T16:17:18.058Z,3.07
2019-03-23T16:22:24.622Z,3.53
2019-03-23T16:27:31.446Z,2.83
2019-03-23T16:32:38.326Z,2.30
2019-03-23T16:37:45.013Z,2.70
2019-03-23T16:42:51.676Z,2.50
2019-03-23T16:47:59.243Z,3.03
2019-03-23T16:53:05.845Z,3.57
2019-03-23T16:58:16.266Z,3.53
2019-03-23T17:03:20.844Z,2.93
2019-03-23T17:08:27.393Z,3.43
2019-03-23T17:13:34.105Z,3.10
2019-03-23T17:18:40.742Z,2.93
2019-03-23T17:23:47.481Z,3.00
2019-03-23T17:28:54.167Z,3.00
2019-03-23T17:34:00.810Z,3.07
2019-03-23T17:39:07.946Z,3.20
2019-03-23T17:44:14.794Z,3.10
2019-03-23T17:49:21.490Z,3.23
2019-03-23T17:54:28.133Z,3.33
2019-03-23T17:59:35.633Z,3.17
2019-03-23T18:04:42.413Z,3.50
2019-03-23T18:09:50.260Z,3.40
2019-03-23T18:14:56.949Z,4.20
2019-03-23T18:20:03.711Z,3.90
2019-03-23T18:25:12.001Z,3.10
2019-03-23T18:30:46.608Z,3.73
2019-03-23T18:35:53.362Z,2.93
2019-03-23T18:41:00.066Z,3.77
2019-03-23T18:46:06.781Z,3.90
2019-03-23T18:51:13.429Z,4.10
2019-03-23T18:56:21.221Z,3.50
2019-03-23T19:01:27.842Z,4.70
2019-03-23T19:06:34.647Z,3.60
2019-03-23T19:11:41.393Z,3.60
2019-03-23T19:16:48.001Z,3.80
2019-03-23T19:21:57.074Z,3.40
2019-03-23T19:27:03.899Z,3.37
2019-03-23T19:32:10.673Z,4.00
2019-03-23T19:37:17.300Z,3.90
2019-03-23T19:42:24.017Z,3.90
2019-03-23T19:47:30.793Z,3.77
2019-03-23T19:52:37.493Z,3.70
2019-03-23T19:57:44.799Z,3.63
2019-03-23T20:02:51.463Z,3.87
2019-03-23T20:07:58.274Z,4.20
2019-03-23T20:13:04.985Z,4.07
2019-03-23T20:18:11.716Z,3.80
2019-03-23T20:23:18.515Z,4.37
2019-03-23T20:28:25.129Z,4.00
2019-03-23T20:33:31.990Z,3.60
2019-03-23T20:38:39.656Z,4.20
2019-03-23T20:43:46.712Z,4.20
2019-03-23T20:48:53.754Z,4.57
2019-03-23T20:54:01.121Z,4.77
2019-03-23T20:59:07.922Z,4.83
2019-03-23T21:04:16.843Z,4.97
2019-03-23T21:09:23.547Z,4.83
2019-03-23T21:14:30.251Z,4.80
2019-03-23T21:19:39.730Z,5.30
2019-03-23T21:24:48.984Z,4.97
2019-03-23T21:29:55.567Z,4.50
2019-03-23T21:35:02.354Z,4.87
2019-03-23T21:40:09.911Z,4.17
2019-03-23T21:45:16.686Z,4.63
2019-03-23T21:50:23.240Z,4.93
2019-03-23T21:55:30.144Z,5.33
2019-03-23T22:00:37.050Z,4.77
2019-03-23T22:05:43.854Z,5.03
2019-03-23T22:10:50.598Z,4.60
2019-03-23T22:15:57.245Z,4.67
2019-03-23T22:21:03.985Z,4.73
2019-03-23T22:26:10.750Z,4.57
2019-03-23T22:31:18.411Z,4.97
2019-03-23T22:36:25.197Z,4.90
2019-03-23T22:41:31.773Z,5.00
2019-03-23T22:46:38.385Z,4.53
2019-03-23T22:51:44.925Z,4.33
2019-03-23T22:56:51.813Z,4.87
2019-03-23T23:01:58.409Z,4.40
2019-03-23T23:07:05.228Z,4.70
2019-03-23T23:12:12.006Z,4.77
2019-03-23T23:17:20.288Z,4.87
2019-03-23T23:22:27.024Z,4.70
2019-03-23T23:27:33.730Z,5.00
2019-03-23T23:32:40.381Z,4.53
2019-03-23T23:37:47.013Z,4.50
2019-03-23T23:42:53.741Z,4.30
2019-03-23T23:48:00.276Z,5.20
2019-03-23T23:53:07.022Z,5.37
2019-03-23T23:58:13.537Z,4.87
